Terminal Aerodrome Forecast
Issued by NWS

Home | Current Version | Previous Version | Text Only | Print | Product List | Glossary Off
Versions: 1 2 3 4 5 6 7 8 9 10 11 12

000
FTUS45 KGGW 220520
TAFOLF
TAF
KOLF 220520Z 2206/2306 VRB05KT P6SM SKC
     FM221400 30009KT P6SM FEW150
     FM221900 30015G23KT P6SM SKC
     FM230100 33010KT P6SM FEW110
     FM230300 VRB06KT P6SM FEW110=

USA.gov is the U.S. government's official web portal to all federal, state and local government web resources and services.